Time;durP1;ratioP1;P1;durP2;ratioP2;P2;SDS_P1;SDS_P2;PMS_P1;PMS_P2;Temp;Humidity;BMP_temperature;BMP_pressure;BME280_temperature;BME280_humidity;BME280_pressure;Samples;Min_cycle;Max_cycle;Signal;HPM_P1;HPM_P2
2022/10/16 00:01:39;;;;;;;53.00;40.45;;;;;;;11.71;84.81;100996.55;1757895;80;21213;-88
2022/10/16 00:04:05;;;;;;;54.45;42.00;;;;;;;11.75;84.69;100998.43;1771630;80;21039;-88
2022/10/16 00:06:32;;;;;;;54.67;41.25;;;;;;;11.80;84.70;100998.53;1766430;80;21046;-88
2022/10/16 00:09:00;;;;;;;55.48;41.45;;;;;;;11.83;84.61;100998.17;1746542;80;21158;-88
2022/10/16 00:11:30;;;;;;;52.27;38.80;;;;;;;11.85;84.72;100997.78;1748505;80;21666;-88
2022/10/16 00:14:01;;;;;;;54.53;38.58;;;;;;;11.89;84.79;101001.38;1738913;80;21746;-88
2022/10/16 00:16:29;;;;;;;52.35;41.00;;;;;;;11.95;84.88;100988.80;1762589;80;21098;-88
2022/10/16 00:18:56;;;;;;;52.35;39.05;;;;;;;12.05;84.94;100997.41;1777398;80;21026;-88
2022/10/16 00:21:25;;;;;;;52.03;39.25;;;;;;;12.11;84.93;101001.49;1748915;80;21297;-88
2022/10/16 00:23:54;;;;;;;64.87;48.05;;;;;;;12.15;84.85;100991.91;1770168;80;21689;-88
2022/10/16 00:26:21;;;;;;;56.63;44.60;;;;;;;12.17;84.78;100988.87;1758681;80;21685;-88
2022/10/16 00:28:49;;;;;;;53.33;41.80;;;;;;;12.19;84.77;100991.99;1760017;80;21105;-87
2022/10/16 00:31:16;;;;;;;53.40;41.42;;;;;;;12.24;84.87;100993.43;1744064;80;21035;-87
2022/10/16 00:33:42;;;;;;;56.42;43.10;;;;;;;12.22;84.78;100995.15;1709358;83;21201;-87
2022/10/16 00:36:14;;;;;;;53.17;40.23;;;;;;;12.29;84.80;101011.55;1749674;80;21075;-87
2022/10/16 00:38:42;;;;;;;47.95;37.80;;;;;;;12.33;84.86;101005.52;1766776;80;22718;-88
2022/10/16 00:41:14;;;;;;;51.33;37.70;;;;;;;12.39;84.87;101007.39;1773467;80;21105;-89
2022/10/16 00:43:48;;;;;;;46.15;36.68;;;;;;;12.44;84.94;100996.48;1751810;81;21035;-88
2022/10/16 00:46:31;;;;;;;45.50;35.80;;;;;;;12.52;85.11;101003.23;1762274;80;21052;-88
2022/10/16 00:49:09;;;;;;;43.73;33.23;;;;;;;12.56;85.05;100996.75;1748755;80;21040;-88
2022/10/16 00:51:47;;;;;;;41.00;32.40;;;;;;;12.62;85.20;101002.59;1746492;80;21868;-88
2022/10/16 00:54:18;;;;;;;42.30;30.90;;;;;;;12.59;84.96;101002.11;1758102;80;21159;-88
2022/10/16 00:56:45;;;;;;;41.95;31.57;;;;;;;12.55;85.09;101008.16;1743541;80;21110;-88
2022/10/16 00:59:26;;;;;;;38.53;31.33;;;;;;;12.57;85.45;101013.48;1745047;81;21573;-88
2022/10/16 01:01:53;;;;;;;40.35;30.62;;;;;;;12.62;85.79;101006.11;1763089;81;21058;-89
2022/10/16 01:04:20;;;;;;;38.40;31.02;;;;;;;12.73;86.06;101005.45;1773187;80;22520;-89
2022/10/16 01:07:07;;;;;;;40.98;31.55;;;;;;;12.81;86.19;101006.48;1742181;82;21060;-88
2022/10/16 01:10:03;;;;;;;40.98;31.42;;;;;;;12.90;86.27;101009.31;1748096;80;22444;-87
2022/10/16 01:12:52;;;;;;;38.38;30.15;;;;;;;12.97;86.31;101003.30;1702640;84;21085;-86
2022/10/16 01:15:43;;;;;;;39.35;29.87;;;;;;;13.05;86.35;100999.47;1702975;83;21127;-86
2022/10/16 01:18:30;;;;;;;38.80;30.50;;;;;;;13.13;86.38;100999.17;1694179;83;21774;-86
2022/10/16 01:21:10;;;;;;;36.68;30.05;;;;;;;13.18;86.35;100997.52;1700057;83;21120;-86
2022/10/16 01:23:48;;;;;;;37.23;29.85;;;;;;;13.25;86.35;100993.25;1723056;83;21583;-85
2022/10/16 01:26:32;;;;;;;35.80;29.30;;;;;;;13.28;86.39;100999.01;1693807;83;21466;-85
2022/10/16 01:29:37;;;;;;;36.55;28.87;;;;;;;13.33;86.54;101002.22;1701301;83;21112;-85
2022/10/16 01:32:30;;;;;;;39.13;27.65;;;;;;;13.38;86.60;101004.52;1697669;83;21830;-85
2022/10/16 01:35:07;;;;;;;33.60;27.32;;;;;;;13.46;86.64;101007.70;1712449;83;21604;-85
2022/10/16 01:37:45;;;;;;;32.40;26.77;;;;;;;13.51;86.81;101010.01;1691297;83;21857;-86
2022/10/16 01:40:13;;;;;;;35.30;27.45;;;;;;;13.56;86.79;101016.28;1700646;83;21456;-86
2022/10/16 01:42:50;;;;;;;35.90;28.57;;;;;;;13.61;86.84;101016.81;1680279;83;21095;-86
2022/10/16 01:45:17;;;;;;;36.13;28.00;;;;;;;13.68;86.96;101023.08;1681205;83;21770;-86
2022/10/16 01:47:45;;;;;;;36.75;28.23;;;;;;;13.72;86.89;101027.58;1643790;86;21050;-86
2022/10/16 01:50:11;;;;;;;30.05;25.55;;;;;;;13.76;86.86;101024.11;1717962;81;21064;-86
2022/10/16 01:52:42;;;;;;;33.13;27.42;;;;;;;13.80;86.83;101023.73;1724081;81;21777;-85
2022/10/16 01:55:10;;;;;;;33.92;26.15;;;;;;;13.84;86.86;101028.64;1734009;80;21072;-87
2022/10/16 01:57:38;;;;;;;30.25;26.15;;;;;;;13.87;86.89;101033.55;1731890;82;21773;-88
2022/10/16 02:00:09;;;;;;;34.23;25.10;;;;;;;13.91;86.82;101027.88;1743609;81;21039;-87
2022/10/16 02:02:36;;;;;;;33.90;25.32;;;;;;;13.95;86.93;101024.41;1721974;81;21022;-87
2022/10/16 02:05:07;;;;;;;34.30;25.60;;;;;;;13.99;86.89;101023.59;1759462;81;21158;-85
2022/10/16 02:07:34;;;;;;;32.42;25.02;;;;;;;14.02;86.83;101021.00;1762475;80;21074;-87
2022/10/16 02:10:01;;;;;;;31.05;25.15;;;;;;;14.06;86.81;101025.88;1751445;81;22618;-86
2022/10/16 02:12:31;;;;;;;31.15;24.98;;;;;;;14.09;86.83;101016.22;1759707;81;21533;-86
2022/10/16 02:14:57;;;;;;;31.25;25.57;;;;;;;14.13;86.83;100999.95;1752570;81;21074;-86
2022/10/16 02:17:25;;;;;;;30.80;25.80;;;;;;;14.14;86.63;101001.31;1739587;80;22145;-86
2022/10/16 02:19:55;;;;;;;28.77;23.83;;;;;;;14.09;86.31;100999.02;1743505;82;21638;-85
2022/10/16 02:22:32;;;;;;;27.02;22.98;;;;;;;14.01;86.06;100996.70;1770917;80;21758;-85
2022/10/16 02:25:06;;;;;;;24.50;21.85;;;;;;;13.91;85.95;100997.01;1775259;80;21022;-86
2022/10/16 02:28:01;;;;;;;32.60;22.98;;;;;;;13.84;85.98;101003.51;1771924;80;21124;-85
2022/10/16 02:30:37;;;;;;;27.02;22.70;;;;;;;13.76;86.01;101003.39;1743141;81;21164;-87
2022/10/16 02:33:09;;;;;;;27.82;21.20;;;;;;;13.67;86.01;101002.80;1735949;82;21022;-87
2022/10/16 02:35:35;;;;;;;25.85;21.33;;;;;;;13.60;86.12;101004.44;1763122;80;21893;-86
2022/10/16 02:38:02;;;;;;;23.85;21.23;;;;;;;13.55;86.19;101005.22;1774392;80;21576;-88
2022/10/16 02:40:35;;;;;;;24.23;21.12;;;;;;;13.49;86.18;101007.77;1775271;80;21505;-88
2022/10/16 02:43:03;;;;;;;24.52;21.40;;;;;;;13.44;86.30;100997.54;1747711;80;21035;-88
2022/10/16 02:45:30;;;;;;;24.57;20.30;;;;;;;13.39;86.30;100990.42;1731850;80;21046;-86
2022/10/16 02:47:57;;;;;;;24.25;20.43;;;;;;;13.33;86.40;101004.87;1777327;80;21766;-85
2022/10/16 02:50:24;;;;;;;29.82;22.10;;;;;;;13.30;86.60;101004.80;1773594;80;21030;-85
2022/10/16 02:52:51;;;;;;;27.30;20.72;;;;;;;13.30;86.67;101006.53;1769275;80;21050;-86
2022/10/16 02:55:18;;;;;;;28.07;21.12;;;;;;;13.28;86.74;101014.87;1729806;82;21314;-86
2022/10/16 02:57:45;;;;;;;26.77;20.92;;;;;;;13.26;86.85;101009.55;1751418;81;21023;-87
2022/10/16 03:00:14;;;;;;;25.00;20.48;;;;;;;13.15;86.86;100994.80;1754224;81;21748;-87
2022/10/16 03:02:41;;;;;;;24.40;20.90;;;;;;;13.23;87.05;101019.64;1738849;80;21066;-87
2022/10/16 03:05:09;;;;;;;26.37;21.65;;;;;;;13.22;87.08;101003.75;1764388;80;21042;-86
2022/10/16 03:07:36;;;;;;;21.90;19.48;;;;;;;13.21;87.08;101004.19;1720709;82;21048;-87
2022/10/16 03:10:03;;;;;;;26.68;20.23;;;;;;;13.21;87.10;101000.23;1776711;80;21489;-86
2022/10/16 03:12:31;;;;;;;23.05;19.77;;;;;;;13.21;87.15;101000.63;1756701;80;23012;-86
2022/10/16 03:14:58;;;;;;;22.17;19.82;;;;;;;13.23;87.31;101001.55;1770039;80;21339;-87
2022/10/16 03:17:25;;;;;;;21.93;19.00;;;;;;;13.24;87.45;100998.06;1745587;81;21102;-85
2022/10/16 03:19:51;;;;;;;22.75;19.45;;;;;;;13.30;87.59;101003.88;1752939;81;21060;-85
2022/10/16 03:22:18;;;;;;;22.98;19.73;;;;;;;13.36;87.72;101006.66;1758529;81;21026;-85
2022/10/16 03:24:46;;;;;;;21.55;18.65;;;;;;;13.40;87.79;100998.83;1738755;82;21222;-85
2022/10/16 03:27:13;;;;;;;21.77;17.75;;;;;;;13.48;87.87;100998.95;1760888;81;21041;-85
2022/10/16 03:29:40;;;;;;;20.05;17.95;;;;;;;13.54;87.88;100988.91;1759974;81;21055;-85
2022/10/16 03:32:08;;;;;;;21.87;17.65;;;;;;;13.60;87.79;100995.17;1741843;82;21064;-85
2022/10/16 03:34:35;;;;;;;21.15;18.85;;;;;;;13.63;87.72;100993.03;1766626;80;21640;-85
2022/10/16 03:37:01;;;;;;;22.50;18.25;;;;;;;13.66;87.67;100994.39;1768328;81;21774;-85
2022/10/16 03:39:28;;;;;;;21.00;18.73;;;;;;;13.71;87.70;100996.69;1742798;81;21118;-85
2022/10/16 03:41:55;;;;;;;22.40;18.32;;;;;;;13.75;87.71;100995.86;1738716;82;21154;-85
2022/10/16 03:44:22;;;;;;;23.05;18.95;;;;;;;13.78;87.71;101003.86;1760055;81;21031;-85
2022/10/16 03:46:48;;;;;;;20.57;18.42;;;;;;;13.83;87.63;100996.42;1738501;82;21327;-85
2022/10/16 03:49:15;;;;;;;24.00;18.62;;;;;;;13.85;87.50;101006.59;1738287;82;22566;-85
2022/10/16 03:51:42;;;;;;;24.92;19.32;;;;;;;13.89;87.48;101016.35;1768060;81;21019;-85
2022/10/16 03:54:10;;;;;;;22.35;18.55;;;;;;;13.92;87.47;101013.32;1769201;81;21092;-85
2022/10/16 03:56:37;;;;;;;23.90;18.77;;;;;;;13.96;87.41;101006.33;1762155;81;21067;-85
2022/10/16 03:59:04;;;;;;;21.17;18.98;;;;;;;13.91;87.28;100992.16;1754660;81;21027;-86
2022/10/16 04:01:30;;;;;;;22.87;18.55;;;;;;;14.01;87.30;101003.33;1748686;81;21784;-88
2022/10/16 04:03:57;;;;;;;22.65;20.15;;;;;;;14.03;87.19;101006.00;1768631;81;21544;-88
2022/10/16 04:06:24;;;;;;;22.27;19.87;;;;;;;14.05;87.18;101006.47;1720017;82;22055;-85
2022/10/16 04:08:51;;;;;;;21.42;18.60;;;;;;;14.07;87.17;101003.41;1760137;81;21054;-85
2022/10/16 04:11:18;;;;;;;22.90;20.55;;;;;;;14.09;87.06;100998.14;1751528;81;21548;-85
2022/10/16 04:13:45;;;;;;;22.10;19.25;;;;;;;14.09;87.05;100996.37;1768648;80;21798;-85
2022/10/16 04:16:12;;;;;;;24.12;20.82;;;;;;;14.11;86.97;100999.93;1755876;80;21110;-85
2022/10/16 04:18:38;;;;;;;24.05;19.90;;;;;;;14.13;86.95;101004.84;1757646;80;21062;-86
2022/10/16 04:21:06;;;;;;;28.90;20.55;;;;;;;14.13;86.83;101003.92;1750236;80;21090;-86
2022/10/16 04:23:41;;;;;;;25.72;20.77;;;;;;;14.13;86.88;101000.88;1760245;80;21081;-87
2022/10/16 04:26:10;;;;;;;22.77;19.73;;;;;;;14.14;86.83;101007.92;1746532;80;21833;-86
2022/10/16 04:28:37;;;;;;;24.05;20.95;;;;;;;14.14;86.73;101012.34;1746521;80;21054;-87
2022/10/16 04:31:07;;;;;;;24.20;20.43;;;;;;;14.14;86.80;101008.37;1742237;80;21034;-86
2022/10/16 04:33:34;;;;;;;24.75;21.97;;;;;;;14.16;86.73;101017.22;1761605;80;21081;-85
2022/10/16 04:36:01;;;;;;;26.48;21.55;;;;;;;14.16;86.65;101014.57;1755123;80;21059;-84
2022/10/16 04:38:28;;;;;;;25.45;21.75;;;;;;;14.15;86.78;101020.31;1772583;80;22625;-85
2022/10/16 04:40:56;;;;;;;26.77;21.93;;;;;;;14.16;86.72;101019.42;1753353;80;21684;-85
2022/10/16 04:43:30;;;;;;;26.52;20.68;;;;;;;14.16;86.67;101021.19;1777348;80;21067;-86
2022/10/16 04:45:56;;;;;;;28.75;23.10;;;;;;;14.15;86.64;101024.28;1774891;80;21073;-85
2022/10/16 04:48:23;;;;;;;26.55;23.25;;;;;;;14.15;86.69;101023.37;1754999;80;21058;-85
2022/10/16 04:50:50;;;;;;;30.95;23.52;;;;;;;14.16;86.80;101018.09;1721992;82;22382;-86
2022/10/16 04:53:17;;;;;;;30.48;24.57;;;;;;;14.17;86.70;101022.95;1684362;82;21592;-86
2022/10/16 04:55:44;;;;;;;29.25;25.15;;;;;;;14.14;86.65;101026.45;1689951;83;21080;-87
2022/10/16 04:58:11;;;;;;;32.28;25.90;;;;;;;14.13;86.63;101032.64;1742587;80;21112;-86
2022/10/16 05:00:38;;;;;;;30.70;25.20;;;;;;;14.13;86.63;101037.02;1746781;82;21056;-87
2022/10/16 05:03:07;;;;;;;31.80;27.48;;;;;;;14.13;86.73;101040.58;1747785;80;21694;-85
2022/10/16 05:05:33;;;;;;;42.60;30.48;;;;;;;14.15;86.82;101033.95;1721784;81;21587;-87
2022/10/16 05:08:00;;;;;;;34.78;29.63;;;;;;;14.16;86.83;101033.11;1746435;80;21059;-86
2022/10/16 05:10:27;;;;;;;34.00;28.92;;;;;;;14.22;86.81;101038.92;1746436;80;21067;-84
2022/10/16 05:12:54;;;;;;;36.90;29.42;;;;;;;14.25;86.84;101029.72;1746130;82;21082;-85
2022/10/16 05:15:24;;;;;;;34.35;30.12;;;;;;;14.28;86.77;101032.38;1764243;80;22656;-84
2022/10/16 05:17:55;;;;;;;35.63;30.00;;;;;;;14.30;86.68;101029.32;1767659;80;21063;-86
2022/10/16 05:20:23;;;;;;;40.40;31.65;;;;;;;14.32;86.61;101031.55;1770853;80;21517;-85
2022/10/16 05:22:50;;;;;;;41.28;33.05;;;;;;;14.34;86.53;101029.41;1755015;80;21023;-86
2022/10/16 05:25:20;;;;;;;40.20;32.45;;;;;;;14.35;86.44;101030.28;1777550;80;21085;-86
2022/10/16 05:27:50;;;;;;;39.30;31.37;;;;;;;14.32;86.30;101034.20;1768211;80;21860;-86
2022/10/16 05:30:18;;;;;;;39.80;33.38;;;;;;;14.29;86.30;101032.86;1717274;82;21045;-91
2022/10/16 05:32:50;;;;;;;48.10;35.63;;;;;;;14.29;86.31;101031.09;1746455;80;21734;-93
2022/10/16 05:35:17;;;;;;;40.03;31.93;;;;;;;14.29;86.27;101028.88;1747363;80;21560;-92
2022/10/16 05:37:51;;;;;;;37.42;33.23;;;;;;;14.27;86.15;101031.95;1750593;80;21631;-91
2022/10/16 05:40:41;;;;;;;41.88;33.23;;;;;;;14.22;86.07;101035.83;1724402;80;21748;-90
2022/10/16 05:43:10;;;;;;;43.25;33.83;;;;;;;14.21;86.18;101039.37;1761793;80;21051;-87
2022/10/16 05:45:45;;;;;;;39.13;32.48;;;;;;;14.23;86.32;101040.69;1753859;80;21053;-87
2022/10/16 05:48:26;;;;;;;39.50;33.05;;;;;;;14.24;86.16;101033.22;1745964;80;21627;-87
2022/10/16 05:51:10;;;;;;;40.65;34.38;;;;;;;14.23;86.11;101035.39;1761582;80;21090;-86
2022/10/16 05:53:37;;;;;;;39.78;32.65;;;;;;;14.21;86.09;101036.72;1753562;80;21781;-85
2022/10/16 05:56:05;;;;;;;42.15;32.70;;;;;;;14.22;86.15;101057.02;1749647;80;21691;-84
2022/10/16 05:58:37;;;;;;;36.15;31.90;;;;;;;14.24;86.13;101053.07;1776363;80;21046;-85
2022/10/16 06:01:14;;;;;;;40.38;33.63;;;;;;;14.26;86.14;101061.92;1777300;80;21062;-86
2022/10/16 06:03:41;;;;;;;41.92;35.58;;;;;;;14.27;86.13;101061.07;1708266;82;21111;-84
2022/10/16 06:06:11;;;;;;;43.55;33.80;;;;;;;14.29;86.25;101063.30;1743004;80;21742;-85
2022/10/16 06:08:42;;;;;;;37.67;32.65;;;;;;;14.36;86.22;101079.30;1741840;80;21489;-85
2022/10/16 06:11:14;;;;;;;39.33;33.30;;;;;;;14.41;86.14;101075.83;1775353;80;21103;-87
2022/10/16 06:13:42;;;;;;;37.38;32.38;;;;;;;14.45;86.12;101077.23;1772220;80;21070;-91
2022/10/16 06:16:10;;;;;;;38.05;31.27;;;;;;;14.50;86.08;101070.66;1713904;82;21576;-83
2022/10/16 06:18:37;;;;;;;40.03;33.10;;;;;;;14.52;85.94;101075.10;1703510;84;22798;-87
2022/10/16 06:21:14;;;;;;;38.35;33.08;;;;;;;14.55;85.85;101077.80;1718118;82;21095;-82
2022/10/16 06:23:41;;;;;;;39.88;34.25;;;;;;;14.54;85.75;101085.28;1676168;85;21680;-83
2022/10/16 06:26:10;;;;;;;37.20;31.93;;;;;;;14.55;85.80;101085.75;1733162;82;21082;-87
2022/10/16 06:28:37;;;;;;;43.05;35.73;;;;;;;14.58;85.70;101086.25;1739446;80;21370;-86
2022/10/16 06:31:05;;;;;;;40.52;32.25;;;;;;;14.61;85.72;101084.09;1726897;81;21802;-86
2022/10/16 06:33:32;;;;;;;35.75;31.82;;;;;;;14.64;85.64;101089.42;1744018;80;21026;-86
2022/10/16 06:36:08;;;;;;;38.30;32.60;;;;;;;14.67;85.59;101108.02;1744201;82;21145;-89
2022/10/16 06:38:35;;;;;;;35.68;31.82;;;;;;;14.68;85.60;101109.38;1691017;82;21308;-84
2022/10/16 06:41:02;;;;;;;38.92;32.85;;;;;;;14.70;85.53;101120.00;1728814;82;21098;-85
2022/10/16 06:43:31;;;;;;;35.03;30.70;;;;;;;14.70;85.49;101117.34;1741782;82;22411;-85
2022/10/16 06:45:59;;;;;;;37.60;31.27;;;;;;;14.69;85.43;101113.78;1735378;80;21508;-84
2022/10/16 06:48:26;;;;;;;36.73;31.68;;;;;;;14.74;85.61;101123.14;1747232;80;21118;-86
2022/10/16 06:51:01;;;;;;;38.83;31.68;;;;;;;14.80;85.61;101121.01;1737851;80;21239;-85
2022/10/16 06:53:29;;;;;;;36.23;31.40;;;;;;;14.85;85.57;101126.83;1731410;80;21062;-83
2022/10/16 06:55:56;;;;;;;35.30;30.10;;;;;;;14.92;85.61;101130.02;1737924;82;21768;-84
2022/10/16 06:58:23;;;;;;;36.60;30.85;;;;;;;15.01;85.58;101127.02;1740811;80;21559;-81
2022/10/16 07:00:57;;;;;;;34.50;30.68;;;;;;;15.10;85.63;101117.86;1737226;82;21611;-83
2022/10/16 07:03:24;;;;;;;45.65;37.30;;;;;;;15.18;85.56;101120.16;1692221;82;21095;-83
2022/10/16 07:05:51;;;;;;;33.23;29.70;;;;;;;15.28;85.54;101120.73;1728962;82;21644;-83
2022/10/16 07:08:18;;;;;;;34.03;29.00;;;;;;;15.33;85.34;101121.69;1697653;82;21754;-81
2022/10/16 07:10:45;;;;;;;32.88;29.12;;;;;;;15.37;85.20;101131.86;1742150;82;21526;-82
2022/10/16 07:13:14;;;;;;;41.20;30.08;;;;;;;15.41;85.09;101133.70;1740078;80;21553;-83
2022/10/16 07:15:41;;;;;;;33.83;28.85;;;;;;;15.48;85.03;101126.69;1753580;80;21027;-81
2022/10/16 07:18:08;;;;;;;34.27;30.45;;;;;;;15.51;84.89;101128.06;1754309;80;21114;-82
2022/10/16 07:20:35;;;;;;;34.10;30.12;;;;;;;15.57;84.93;101134.75;1747608;80;22041;-90
2022/10/16 07:23:02;;;;;;;35.03;31.23;;;;;;;15.62;84.80;101135.70;1767766;80;21058;-88
2022/10/16 07:25:29;;;;;;;33.75;29.60;;;;;;;15.68;84.79;101128.23;1725668;82;21031;-88
2022/10/16 07:27:57;;;;;;;31.62;28.15;;;;;;;15.75;84.85;101127.46;1771375;80;21095;-91
2022/10/16 07:30:24;;;;;;;33.92;28.12;;;;;;;15.81;84.58;101132.82;1765209;80;21585;-82
2022/10/16 07:32:51;;;;;;;34.92;29.65;;;;;;;15.87;84.64;101132.87;1760107;80;21827;-91
2022/10/16 07:35:18;;;;;;;31.05;27.05;;;;;;;15.93;84.48;101121.41;1719042;82;21088;-88
2022/10/16 07:37:50;;;;;;;31.40;28.00;;;;;;;16.02;84.32;101125.48;1773426;80;21505;-88
2022/10/16 07:40:18;;;;;;;32.05;27.73;;;;;;;16.11;84.37;101135.30;1745162;82;21682;-88
2022/10/16 07:42:45;;;;;;;35.28;28.92;;;;;;;16.17;84.12;101144.64;1760943;80;21146;-89
2022/10/16 07:45:12;;;;;;;31.95;28.38;;;;;;;16.19;83.84;101147.31;1748003;80;21733;-89
2022/10/16 07:47:39;;;;;;;31.50;28.07;;;;;;;16.21;83.69;101141.13;1766991;80;21054;-88
2022/10/16 07:50:08;;;;;;;31.12;27.87;;;;;;;16.23;83.69;101142.02;1750056;80;21277;-88
2022/10/16 07:52:35;;;;;;;31.80;27.35;;;;;;;16.28;83.52;101151.38;1757785;80;21077;-89
2022/10/16 07:55:02;;;;;;;30.15;26.77;;;;;;;16.27;83.40;101141.61;1753910;80;22248;-89
2022/10/16 07:57:29;;;;;;;30.08;26.97;;;;;;;16.29;83.30;101147.83;1751336;80;22540;-88
2022/10/16 07:59:56;;;;;;;32.50;28.77;;;;;;;16.31;83.38;101147.39;1723191;80;21116;-90
2022/10/16 08:02:23;;;;;;;34.30;29.30;;;;;;;16.26;83.27;101136.75;1777537;80;21093;-89
2022/10/16 08:04:50;;;;;;;31.27;28.02;;;;;;;16.41;83.20;101150.59;1760834;80;21118;-88
2022/10/16 08:07:17;;;;;;;34.60;27.35;;;;;;;16.43;83.06;101149.28;1748060;80;21090;-88
2022/10/16 08:09:51;;;;;;;31.85;27.82;;;;;;;16.48;83.10;101153.75;1747205;80;22463;-88
2022/10/16 08:12:18;;;;;;;33.35;29.07;;;;;;;16.54;82.92;101158.66;1768294;80;21508;-89
2022/10/16 08:14:45;;;;;;;32.45;28.95;;;;;;;16.54;82.69;101167.97;1751007;80;21646;-88
2022/10/16 08:17:14;;;;;;;28.02;25.08;;;;;;;16.56;82.57;101182.15;1748506;80;21019;-88
2022/10/16 08:19:47;;;;;;;31.20;26.82;;;;;;;16.52;82.40;101190.09;1774243;80;21074;-82
2022/10/16 08:22:14;;;;;;;39.60;34.33;;;;;;;16.48;82.22;101190.06;1719521;82;21447;-82
2022/10/16 08:24:41;;;;;;;42.30;35.20;;;;;;;16.48;82.42;101190.06;1761034;80;21055;-82
2022/10/16 08:27:08;;;;;;;37.67;32.75;;;;;;;16.49;82.40;101195.36;1743544;81;21090;-82
2022/10/16 08:29:35;;;;;;;30.97;27.62;;;;;;;16.56;82.52;101195.44;1750687;80;21355;-83
2022/10/16 08:32:04;;;;;;;31.50;28.15;;;;;;;16.61;82.46;101196.34;1756227;80;21042;-83
2022/10/16 08:34:31;;;;;;;31.37;27.87;;;;;;;16.66;82.43;101190.17;1744458;82;21789;-87
2022/10/16 08:36:59;;;;;;;32.50;26.85;;;;;;;16.73;82.28;101191.12;1759345;80;21588;-83
2022/10/16 08:39:26;;;;;;;30.82;26.62;;;;;;;16.73;82.08;101192.90;1752529;80;21085;-87
2022/10/16 08:42:08;;;;;;;34.83;29.95;;;;;;;16.73;82.00;101196.44;1759440;80;21167;-83
2022/10/16 08:44:59;;;;;;;30.15;26.95;;;;;;;16.76;81.87;101204.86;1759594;80;21074;-87
2022/10/16 08:47:55;;;;;;;29.90;25.52;;;;;;;16.75;81.83;101206.64;1758564;80;21869;-84
2022/10/16 08:50:28;;;;;;;31.70;25.48;;;;;;;16.70;81.74;101216.34;1746119;80;21560;-87
2022/10/16 08:52:56;;;;;;;31.73;25.77;;;;;;;16.63;81.50;101216.75;1744681;80;21023;-84
2022/10/16 08:55:43;;;;;;;29.72;25.15;;;;;;;16.57;81.58;101214.02;1774736;80;21684;-91
2022/10/16 08:58:21;;;;;;;30.08;25.40;;;;;;;16.56;81.72;101216.25;1732775;82;21035;-92
2022/10/16 09:00:54;;;;;;;31.77;25.23;;;;;;;16.57;81.83;101218.45;1716802;82;21796;-86
2022/10/16 09:03:58;;;;;;;;;;;;;;;16.55;81.78;101221.09;1721146;82;21114;-88
2022/10/16 09:06:50;;;;;;;29.60;24.95;;;;;;;16.52;81.77;101222.42;1704072;83;20493;-87
2022/10/16 09:10:10;;;;;;;29.63;24.82;;;;;;;16.50;81.83;101223.73;1732896;82;21073;-88
2022/10/16 09:12:57;;;;;;;33.88;27.22;;;;;;;16.54;81.85;101225.98;1722198;82;21093;-91
2022/10/16 09:15:41;;;;;;;30.50;24.10;;;;;;;16.59;82.00;101200.34;1704497;82;21778;-90
2022/10/16 09:18:32;;;;;;;27.62;23.65;;;;;;;16.73;82.17;101209.73;1714727;83;21111;-88
2022/10/16 09:21:17;;;;;;;28.02;24.27;;;;;;;16.84;81.99;101201.87;1711247;83;21637;-89
2022/10/16 09:23:44;;;;;;;31.23;26.60;;;;;;;16.92;81.95;101198.80;1696935;83;21168;-83
2022/10/16 09:26:14;;;;;;;28.52;25.20;;;;;;;17.00;81.83;101200.17;1720993;83;21320;-83
2022/10/16 09:28:42;;;;;;;32.17;27.62;;;;;;;17.04;81.66;101205.95;1720651;83;21977;-84
2022/10/16 09:31:19;;;;;;;28.50;24.43;;;;;;;17.08;81.52;101206.45;1713782;83;21086;-84
2022/10/16 09:33:59;;;;;;;26.23;22.90;;;;;;;17.11;81.44;101215.75;1720993;80;21067;-84
2022/10/16 09:36:28;;;;;;;26.33;22.32;;;;;;;17.10;81.23;101212.21;1761717;80;21525;-84
2022/10/16 09:39:06;;;;;;;29.05;21.48;;;;;;;17.07;81.15;101220.61;1765408;80;21089;-90
2022/10/16 09:41:37;;;;;;;29.10;24.10;;;;;;;17.07;81.16;101225.94;1774151;80;22749;-84
2022/10/16 09:44:06;;;;;;;31.37;25.32;;;;;;;17.01;80.93;101234.77;1757014;80;21079;-84
2022/10/16 09:46:37;;;;;;;27.55;24.40;;;;;;;16.98;81.04;101241.83;1748395;80;21070;-84
2022/10/16 09:49:08;;;;;;;32.67;23.65;;;;;;;16.94;81.09;101238.27;1739397;82;21098;-84
2022/10/16 09:51:37;;;;;;;26.68;23.25;;;;;;;16.96;81.19;101232.51;1768258;80;21097;-84
2022/10/16 09:54:12;;;;;;;32.20;25.05;;;;;;;17.00;81.19;101228.98;1763624;80;21981;-83
2022/10/16 09:56:40;;;;;;;26.95;22.98;;;;;;;17.00;81.17;101228.98;1776587;80;21062;-83
2022/10/16 09:59:18;;;;;;;32.33;26.52;;;;;;;17.02;81.21;101225.89;1736389;82;21190;-84
2022/10/16 10:01:55;;;;;;;26.37;23.55;;;;;;;17.08;81.22;101226.40;1759647;80;21078;-84
2022/10/16 10:04:23;;;;;;;28.55;24.55;;;;;;;17.09;80.98;101225.50;1759164;80;21145;-84
2022/10/16 10:06:54;;;;;;;24.55;22.00;;;;;;;17.07;81.00;101232.13;1767416;80;21776;-83
2022/10/16 10:09:38;;;;;;;25.48;22.77;;;;;;;17.11;81.05;101227.72;1746151;80;21118;-84
2022/10/16 10:12:32;;;;;;;29.37;26.00;;;;;;;17.12;80.94;101232.59;1729059;80;21062;-83
2022/10/16 10:15:09;;;;;;;28.27;23.75;;;;;;;17.15;80.92;101251.25;1760588;80;21105;-83
2022/10/16 10:17:50;;;;;;;30.15;25.97;;;;;;;17.14;80.83;101250.81;1748956;80;21109;-83
2022/10/16 10:20:35;;;;;;;33.50;27.07;;;;;;;17.12;80.84;101253.46;1747770;80;21758;-84
2022/10/16 10:23:25;;;;;;;28.35;23.15;;;;;;;17.13;80.92;101263.65;1750815;80;21094;-85
2022/10/16 10:26:07;;;;;;;29.63;26.35;;;;;;;17.13;80.87;101271.63;1724833;81;21062;-83
2022/10/16 10:29:05;;;;;;;23.80;21.30;;;;;;;17.15;80.88;101276.06;1724269;81;21173;-83
2022/10/16 10:31:52;;;;;;;23.70;19.85;;;;;;;17.16;80.86;101277.86;1734919;81;21079;-90
2022/10/16 10:35:05;;;;;;;25.25;20.68;;;;;;;17.20;80.91;101270.34;1746727;81;21690;-89
2022/10/16 10:37:52;;;;;;;22.85;20.05;;;;;;;17.35;81.20;101269.99;1748559;81;21091;-90
2022/10/16 10:40:42;;;;;;;26.05;22.58;;;;;;;17.50;80.99;101263.41;1726437;80;21434;-86
2022/10/16 10:43:40;;;;;;;25.77;22.60;;;;;;;17.58;80.74;101269.64;1734698;81;21114;-85
2022/10/16 10:46:12;;;;;;;22.32;19.85;;;;;;;17.68;80.66;101271.90;1741597;81;21121;-86
2022/10/16 10:49:19;;;;;;;21.70;19.50;;;;;;;17.76;80.51;101268.84;1743620;81;21748;-89
2022/10/16 10:52:27;;;;;;;23.15;20.68;;;;;;;17.84;80.37;101273.78;1744902;81;21087;-90
2022/10/16 10:55:05;;;;;;;23.52;19.17;;;;;;;17.86;80.17;101276.45;1733773;81;21070;-87
2022/10/16 10:57:43;;;;;;;21.52;19.23;;;;;;;17.87;79.99;101267.59;1755287;81;21138;-82
2022/10/16 11:00:17;;;;;;;23.98;21.17;;;;;;;17.85;79.86;101270.70;1725416;81;21125;-87
2022/10/16 11:03:14;;;;;;;;;;;;;;;17.80;79.82;101277.28;1765382;80;23098;-88
2022/10/16 11:06:08;;;;;;;26.23;22.45;;;;;;;17.81;79.83;101271.51;1753158;80;20800;-84
2022/10/16 11:08:45;;;;;;;;;;;;;;;17.85;79.97;101273.36;1776484;80;21027;-88
2022/10/16 11:11:23;;;;;;;29.57;22.40;;;;;;;17.95;80.05;101276.48;1761844;80;20483;-89
2022/10/16 11:14:12;;;;;;;23.62;19.85;;;;;;;18.12;80.08;101275.20;1755984;80;21042;-82
2022/10/16 11:17:05;;;;;;;25.40;20.62;;;;;;;18.31;80.03;101269.91;1753017;81;21786;-89
2022/10/16 11:19:57;;;;;;;27.62;22.45;;;;;;;18.49;79.78;101260.59;1754215;80;21623;-88
2022/10/16 11:22:32;;;;;;;23.30;20.77;;;;;;;18.67;79.47;101267.70;1763183;80;21059;-89
2022/10/16 11:25:09;;;;;;;24.95;20.70;;;;;;;18.76;79.20;101270.81;1739599;82;21131;-89
2022/10/16 11:27:40;;;;;;;36.10;26.95;;;;;;;18.87;79.04;101271.73;1759767;80;21120;-89
2022/10/16 11:30:24;;;;;;;31.57;28.17;;;;;;;18.94;78.73;101262.84;1775977;80;21846;-89
2022/10/16 11:33:14;;;;;;;29.82;25.57;;;;;;;18.99;78.59;101266.81;1754389;80;21074;-90
2022/10/16 11:35:55;;;;;;;27.62;21.87;;;;;;;19.05;78.32;101272.16;1765548;80;21117;-90